Berlin, Michigan
Current Conditions -  °F | °C
As of 5:14 AM on Friday 31 Oct 2014 (Local Time) from KD95 Reporting Station
Overcast Overcast  
Wind Chill: 40°   Ceiling: 4800
Heat Index: 43°   Visibility: 10mi
Dew Point: 37°   Wind: 5mph
Humidity: 79%   Direction: 210°SSW
Pressure: 29.9"   Gusts: NA
Location:  42.9384°N, 82.9255°W
Report Text: KD95 310914Z AUTO 21004KT 10SM SCT028 OVC048 06/03 A2990 RMK AO2 T00600026
Loading
Personal Weather Stations






























Interactive Weather Map New forecast layout! Learn more

10-Day Weather Forecast

Advertisements
Track Severe Weather on mobile